Etusivu
METAR-TAF:

METAR-TAF

Lentoasemat :

Jersey,

Leveyspiiri: 49-13N, Pituuspiiri: 002-12W, korkeus merenpinnasta: 84 m

Tämänhetkinen sää

Tämä raportti tehtiin 34 minuuttia sitten, kello 03.50 UTC
Tuuli 10 kn idästä/kaakosta
Lämpötila 10°C
Kosteus 100%
Ilmanpaine 1028 hPa
Näkyvyys: 8000 m

METAR: EGJJ 210350Z AUTO 11010KT 8000 NCD 10/10 Q1028

Aika: 05:24 (04:24 UTC)

Sääennuste

Tämä raportti tehtiin 2 tuntia ja 21 minuuttia sitten, kello 02.03 UTC
Ennuste voimassa 21. päivästä klo 03 UTC - 21. päivään klo 12 UTC
Tuuli 5 kn idästä
Näkyvyys: 4000 m
utua
Tulossa
21. päivästä klo 07 UTC - 21. päivään klo 09 UTC
Näkyvyys 10 km tai enemmän

TAF: EGJJ 210203Z 2103/2112 09005KT 4000 BR NSC BECMG 2107/2109 9999 NSW

Säähavainnot ja -ennusteet yli 4000 lentoasemalta (METAR- ja TAF-raportit).

Käytössä olevat sääasemat on merkitty karttaan keltaisilla ja punaisilla pisteillä.

Aseta hiiri pisteen päälle nähdäksesi sääaseman nimen.

Klikkaa sitten nähdäksesi säähavainnot ja -ennusteet.

Kartan vaihtaminen: klikkaa mustalla rastilla varustettuja vihreitä pisteitä, niin voit zoomata sisään; viivalla varustettua vihreää pistettä, niin voit zoomata ulos tai vihreitä nuolia, niin pääset viereisille kartoille.


METAR-TAF: